createdAt,value
2022-11-24T00:01:15.884Z,3.47
2022-11-24T00:03:45.025Z,2.17
2022-11-24T00:06:14.400Z,2.08
2022-11-24T00:08:43.560Z,2.25
2022-11-24T00:11:17.080Z,1.80
2022-11-24T00:13:44.529Z,1.10
2022-11-24T00:16:13.161Z,1.15
2022-11-24T00:18:41.545Z,1.15
2022-11-24T00:21:09.847Z,1.63
2022-11-24T00:23:37.644Z,1.67
2022-11-24T00:26:33.015Z,1.35
2022-11-24T00:29:02.293Z,1.42
2022-11-24T00:31:32.007Z,2.30
2022-11-24T00:34:01.378Z,2.33
2022-11-24T00:36:31.106Z,3.22
2022-11-24T00:39:01.083Z,1.90
2022-11-24T00:41:29.608Z,2.50
2022-11-24T00:43:57.337Z,2.65
2022-11-24T00:46:25.300Z,1.80
2022-11-24T00:48:54.021Z,2.65
2022-11-24T00:51:23.725Z,2.15
2022-11-24T00:53:51.051Z,2.00
2022-11-24T00:56:18.346Z,2.92
2022-11-24T00:58:45.730Z,1.70
2022-11-24T01:01:16.069Z,2.00
2022-11-24T01:03:43.884Z,2.20
2022-11-24T01:06:17.314Z,2.22
2022-11-24T01:08:45.040Z,1.45
2022-11-24T01:11:50.418Z,3.20
2022-11-24T01:14:17.703Z,2.42
2022-11-24T01:16:44.939Z,2.38
2022-11-24T01:19:12.028Z,1.92
2022-11-24T01:21:39.152Z,1.98
2022-11-24T01:24:06.708Z,1.83
2022-11-24T01:26:33.846Z,1.98
2022-11-24T01:29:01.062Z,1.73
2022-11-24T01:31:28.313Z,1.60
2022-11-24T01:33:55.575Z,1.35
2022-11-24T01:36:23.024Z,1.83
2022-11-24T01:38:50.869Z,1.23
2022-11-24T01:41:23.549Z,1.35
2022-11-24T01:43:52.408Z,2.70
2022-11-24T01:46:39.753Z,1.02
2022-11-24T01:49:09.594Z,1.42
2022-11-24T01:51:41.639Z,1.40
2022-11-24T01:54:14.230Z,1.17
2022-11-24T01:56:42.715Z,1.50
2022-11-24T01:59:12.612Z,1.40
2022-11-24T02:01:39.915Z,3.50
2022-11-24T02:04:14.437Z,1.88
2022-11-24T02:06:44.065Z,2.10
2022-11-24T02:09:41.245Z,1.30
2022-11-24T02:12:08.722Z,1.48
2022-11-24T02:14:37.994Z,0.95
2022-11-24T02:17:05.249Z,1.88
2022-11-24T02:19:56.329Z,1.20
2022-11-24T02:22:35.695Z,1.13
2022-11-24T02:25:30.183Z,1.02
2022-11-24T02:28:00.186Z,1.10
2022-11-24T02:30:27.619Z,1.73
2022-11-24T02:32:55.116Z,1.38
2022-11-24T02:35:22.325Z,1.15
2022-11-24T02:37:49.539Z,1.33
2022-11-24T02:40:24.876Z,1.60
2022-11-24T02:42:58.862Z,1.30
2022-11-24T02:45:26.771Z,1.40
2022-11-24T02:47:53.945Z,1.45
2022-11-24T02:50:21.127Z,1.50
2022-11-24T02:52:48.301Z,2.03
2022-11-24T02:55:15.533Z,2.05
2022-11-24T02:57:42.757Z,1.75
2022-11-24T03:00:10.559Z,1.63
2022-11-24T03:02:37.710Z,2.20
2022-11-24T03:05:05.314Z,1.60
2022-11-24T03:07:32.485Z,1.88
2022-11-24T03:09:59.690Z,2.53
2022-11-24T03:12:26.952Z,2.60
2022-11-24T03:14:54.232Z,2.63
2022-11-24T03:17:21.359Z,2.20
2022-11-24T03:19:48.575Z,2.15
2022-11-24T03:22:16.010Z,2.95
2022-11-24T03:24:43.155Z,2.33
2022-11-24T03:27:10.320Z,2.20
2022-11-24T03:29:37.436Z,3.33
2022-11-24T03:32:05.132Z,2.35
2022-11-24T03:34:32.604Z,2.30
2022-11-24T03:37:00.054Z,2.03
2022-11-24T03:39:27.185Z,2.17
2022-11-24T03:41:54.388Z,2.70
2022-11-24T03:44:21.554Z,3.75
2022-11-24T03:46:48.747Z,2.50
2022-11-24T03:49:16.049Z,2.22
2022-11-24T03:51:43.190Z,1.60
2022-11-24T03:54:10.291Z,2.67
2022-11-24T03:56:37.713Z,2.97
2022-11-24T03:59:04.874Z,2.33
2022-11-24T04:01:32.070Z,2.90
2022-11-24T04:03:59.269Z,2.45
2022-11-24T04:06:26.661Z,3.58
2022-11-24T04:08:53.799Z,2.88
2022-11-24T04:11:39.664Z,3.00
2022-11-24T04:14:13.216Z,3.08
2022-11-24T04:16:40.927Z,2.83
2022-11-24T04:19:08.053Z,2.67
2022-11-24T04:21:35.428Z,2.83
2022-11-24T04:24:02.584Z,3.55
2022-11-24T04:26:29.719Z,3.35
2022-11-24T04:28:56.947Z,2.47
2022-11-24T04:31:24.259Z,4.05
2022-11-24T04:33:51.451Z,2.65
2022-11-24T04:36:18.608Z,3.03
2022-11-24T04:39:25.671Z,2.33
2022-11-24T04:41:32.801Z,2.50
2022-11-24T04:43:59.954Z,2.28
2022-11-24T04:46:27.275Z,2.60
2022-11-24T04:48:54.502Z,2.58
2022-11-24T04:51:21.746Z,3.28
2022-11-24T04:53:49.536Z,3.05
2022-11-24T04:56:16.735Z,3.53
2022-11-24T04:58:43.877Z,3.10
2022-11-24T05:01:10.999Z,2.30
2022-11-24T05:03:38.079Z,2.30
2022-11-24T05:06:05.548Z,2.60
2022-11-24T05:08:32.655Z,3.15
2022-11-24T05:11:07.463Z,3.85
2022-11-24T05:13:34.621Z,2.42
2022-11-24T05:16:01.927Z,2.70
2022-11-24T05:18:29.112Z,2.78
2022-11-24T05:20:57.385Z,2.67
2022-11-24T05:23:25.408Z,2.40
2022-11-24T05:25:53.001Z,4.55
2022-11-24T05:28:20.271Z,3.50
2022-11-24T05:30:47.377Z,2.38
2022-11-24T05:33:19.101Z,2.63
2022-11-24T05:35:48.106Z,3.28
2022-11-24T05:38:16.308Z,3.45
2022-11-24T05:40:43.714Z,3.00
2022-11-24T05:43:12.307Z,3.15
2022-11-24T05:45:39.688Z,1.98
2022-11-24T05:48:08.525Z,2.83
2022-11-24T05:50:36.721Z,3.60
2022-11-24T05:53:09.637Z,2.78
2022-11-24T05:55:37.165Z,3.92
2022-11-24T05:58:08.853Z,2.80
2022-11-24T06:00:36.957Z,2.72
2022-11-24T06:03:04.884Z,3.88
2022-11-24T06:05:32.215Z,4.28
2022-11-24T06:08:00.594Z,3.25
2022-11-24T06:10:28.543Z,3.22
2022-11-24T06:12:55.813Z,3.40
2022-11-24T06:15:23.377Z,3.83
2022-11-24T06:17:56.822Z,3.00
2022-11-24T06:20:29.927Z,3.30
2022-11-24T06:23:00.456Z,3.55
2022-11-24T06:25:28.863Z,3.00
2022-11-24T06:27:56.142Z,3.05
2022-11-24T06:30:23.233Z,3.75
2022-11-24T06:32:54.883Z,3.80
2022-11-24T06:35:22.075Z,3.25
2022-11-24T06:37:49.345Z,2.90
2022-11-24T06:40:16.858Z,3.58
2022-11-24T06:42:50.670Z,3.17
2022-11-24T06:45:17.756Z,2.40
2022-11-24T06:47:44.955Z,2.63
2022-11-24T06:50:12.151Z,2.28
2022-11-24T06:52:39.295Z,3.25
2022-11-24T06:55:07.059Z,2.70
2022-11-24T06:57:35.271Z,2.72
2022-11-24T07:00:04.134Z,2.38
2022-11-24T07:02:31.325Z,2.50
2022-11-24T07:04:58.454Z,2.53
2022-11-24T07:07:25.631Z,2.67
2022-11-24T07:09:52.773Z,2.40
2022-11-24T07:12:19.950Z,2.03
2022-11-24T07:14:47.060Z,2.20
2022-11-24T07:17:14.130Z,2.40
2022-11-24T07:19:41.220Z,2.30
2022-11-24T07:22:08.330Z,3.83
2022-11-24T07:24:35.581Z,1.90
2022-11-24T07:27:03.522Z,2.30
2022-11-24T07:29:31.154Z,2.13
2022-11-24T07:32:04.965Z,2.00
2022-11-24T07:34:33.132Z,2.72
2022-11-24T07:37:00.390Z,2.05
2022-11-24T07:39:27.634Z,2.35
2022-11-24T07:41:54.819Z,3.88
2022-11-24T07:44:21.952Z,3.80
2022-11-24T07:46:51.289Z,3.17
2022-11-24T07:49:19.280Z,3.55
2022-11-24T07:51:46.465Z,1.98
2022-11-24T07:54:13.643Z,3.35
2022-11-24T07:56:40.918Z,3.08
2022-11-24T07:59:08.072Z,2.13
2022-11-24T08:01:35.240Z,3.30
2022-11-24T08:04:02.510Z,3.78
2022-11-24T08:06:36.218Z,4.38
2022-11-24T08:09:06.720Z,4.68
2022-11-24T08:11:34.663Z,4.15
2022-11-24T08:14:01.825Z,3.42
2022-11-24T08:16:29.042Z,3.70
2022-11-24T08:18:56.653Z,3.67
2022-11-24T08:21:24.340Z,2.17
2022-11-24T08:23:55.919Z,3.08
2022-11-24T08:26:24.958Z,3.35
2022-11-24T08:28:59.357Z,2.90
2022-11-24T08:31:33.908Z,2.85
2022-11-24T08:34:02.520Z,2.97
2022-11-24T08:36:30.115Z,3.35
2022-11-24T08:38:59.267Z,3.78
2022-11-24T08:41:27.856Z,3.95
2022-11-24T08:43:55.554Z,3.83
2022-11-24T08:46:23.831Z,3.80
2022-11-24T08:48:55.176Z,3.10
2022-11-24T08:51:26.013Z,3.30
2022-11-24T08:53:58.432Z,3.83
2022-11-24T08:56:27.209Z,3.75
2022-11-24T08:58:55.520Z,2.88
2022-11-24T09:01:23.666Z,4.20
2022-11-24T09:03:51.715Z,3.50
2022-11-24T09:06:25.277Z,3.63
2022-11-24T09:08:54.552Z,3.65
2022-11-24T09:11:22.338Z,3.35
2022-11-24T09:13:50.125Z,3.05
2022-11-24T09:16:22.810Z,3.78
2022-11-24T09:18:59.251Z,3.28
2022-11-24T09:21:26.906Z,3.35
2022-11-24T09:23:55.212Z,4.53
2022-11-24T09:26:23.670Z,5.10
2022-11-24T09:28:54.548Z,4.30
2022-11-24T09:31:24.149Z,3.10
2022-11-24T09:33:52.448Z,5.05
2022-11-24T09:36:20.278Z,3.72
2022-11-24T09:38:47.673Z,3.65
2022-11-24T09:41:17.766Z,4.40
2022-11-24T09:44:09.976Z,4.28
2022-11-24T09:46:48.321Z,3.75
2022-11-24T09:49:27.662Z,3.67
2022-11-24T09:51:56.738Z,4.82
2022-11-24T09:54:28.799Z,5.35
2022-11-24T09:57:00.565Z,5.18
2022-11-24T09:59:28.594Z,4.50
2022-11-24T10:01:56.716Z,4.47
2022-11-24T10:04:32.801Z,4.88
2022-11-24T10:07:08.826Z,5.53
2022-11-24T10:09:56.423Z,5.65
2022-11-24T10:12:43.438Z,4.40
2022-11-24T10:15:39.448Z,4.13
2022-11-24T10:18:46.383Z,5.50
2022-11-24T10:21:40.282Z,6.40
2022-11-24T10:24:32.337Z,6.93
2022-11-24T10:27:16.097Z,6.18
2022-11-24T10:29:44.214Z,6.45
2022-11-24T10:32:26.940Z,5.65
2022-11-24T10:34:59.087Z,6.60
2022-11-24T10:37:35.298Z,6.03
2022-11-24T10:40:21.326Z,5.45
2022-11-24T10:42:57.537Z,8.57
2022-11-24T10:45:28.011Z,6.10
2022-11-24T10:47:55.738Z,6.13
2022-11-24T10:50:33.023Z,6.43
2022-11-24T10:53:18.473Z,5.75
2022-11-24T10:55:57.521Z,6.65
2022-11-24T10:58:40.243Z,6.15
2022-11-24T11:01:30.187Z,6.05
2022-11-24T11:04:00.131Z,6.28
2022-11-24T11:06:29.509Z,6.03
2022-11-24T11:09:19.649Z,6.10
2022-11-24T11:11:48.863Z,4.72
2022-11-24T11:14:33.990Z,4.85
2022-11-24T11:17:01.312Z,6.68
2022-11-24T11:19:50.266Z,7.80
2022-11-24T11:22:27.101Z,4.75
2022-11-24T11:25:06.045Z,5.88
2022-11-24T11:27:33.322Z,5.18
2022-11-24T11:36:16.534Z,5.00
2022-11-24T11:38:45.820Z,5.07
2022-11-24T11:41:34.936Z,5.10
2022-11-24T11:44:32.588Z,6.20
2022-11-24T11:47:08.286Z,5.15
2022-11-24T11:49:38.320Z,6.15
2022-11-24T11:52:15.389Z,4.65
2022-11-24T11:55:02.760Z,4.97
2022-11-24T11:57:54.700Z,5.00
2022-11-24T12:00:22.702Z,4.28
2022-11-24T12:03:27.324Z,5.00
2022-11-24T12:06:32.191Z,4.63
2022-11-24T12:09:21.314Z,4.78
2022-11-24T12:11:54.655Z,5.78
2022-11-24T12:14:45.635Z,4.57
2022-11-24T12:17:34.425Z,4.10
2022-11-24T12:20:27.603Z,4.78
2022-11-24T12:23:32.092Z,3.30
2022-11-24T12:26:11.040Z,4.28
2022-11-24T12:29:03.483Z,5.82
2022-11-24T12:31:45.105Z,4.40
2022-11-24T12:34:25.137Z,4.37
2022-11-24T12:37:06.985Z,4.05
2022-11-24T12:39:52.995Z,3.30
2022-11-24T12:42:38.746Z,5.28
2022-11-24T12:45:41.962Z,5.78
2022-11-24T12:48:14.569Z,4.45
2022-11-24T12:50:44.362Z,4.85
2022-11-24T12:53:24.360Z,5.07
2022-11-24T12:55:52.602Z,4.75
2022-11-24T12:58:50.398Z,5.22
2022-11-24T13:01:54.701Z,4.57
2022-11-24T13:04:51.904Z,6.00
2022-11-24T13:07:39.553Z,4.47
2022-11-24T13:13:16.503Z,5.25
2022-11-24T13:16:07.084Z,4.95
2022-11-24T13:19:15.087Z,3.70
2022-11-24T13:21:50.247Z,5.00
2022-11-24T13:24:18.383Z,4.57
2022-11-24T13:26:49.646Z,4.53
2022-11-24T13:29:34.165Z,5.05
2022-11-24T13:32:01.368Z,5.95
2022-11-24T13:34:43.235Z,5.85
2022-11-24T13:37:31.294Z,4.47
2022-11-24T13:40:31.818Z,4.10
2022-11-24T13:43:01.505Z,5.18
2022-11-24T13:45:55.059Z,4.57
2022-11-24T13:48:28.205Z,3.85
2022-11-24T13:50:58.238Z,4.82
2022-11-24T13:53:40.752Z,4.68
2022-11-24T13:58:48.403Z,4.97
2022-11-24T14:01:22.876Z,4.60
2022-11-24T14:04:30.028Z,4.93
2022-11-24T14:06:52.729Z,4.28
2022-11-24T14:09:45.746Z,4.00
2022-11-24T14:12:14.723Z,3.63
2022-11-24T14:14:42.918Z,4.07
2022-11-24T14:17:28.623Z,4.30
2022-11-24T14:19:57.566Z,5.18
2022-11-24T14:22:31.971Z,4.25
2022-11-24T14:25:01.062Z,4.57
2022-11-24T14:27:35.342Z,4.45
2022-11-24T14:30:10.149Z,3.88
2022-11-24T14:32:40.192Z,3.92
2022-11-24T14:35:31.356Z,4.35
2022-11-24T14:37:59.754Z,4.00
2022-11-24T14:40:56.630Z,4.03
2022-11-24T14:43:32.239Z,5.90
2022-11-24T14:46:00.721Z,5.68
2022-11-24T14:48:33.956Z,5.05
2022-11-24T14:51:18.231Z,4.38
2022-11-24T14:53:47.135Z,4.10
2022-11-24T14:56:26.214Z,4.20
2022-11-24T14:58:54.371Z,5.80
2022-11-24T15:01:27.770Z,4.13
2022-11-24T15:04:54.172Z,4.30
2022-11-24T15:07:27.120Z,5.32
2022-11-24T15:10:00.170Z,5.90
2022-11-24T15:12:42.530Z,4.20
2022-11-24T15:15:15.936Z,4.65
2022-11-24T15:17:53.515Z,4.13
2022-11-24T15:20:35.123Z,3.50
2022-11-24T15:23:28.308Z,4.97
2022-11-24T15:26:18.198Z,4.70
2022-11-24T15:28:48.502Z,4.13
2022-11-24T15:31:15.710Z,4.35
2022-11-24T15:33:42.894Z,4.25
2022-11-24T15:36:11.627Z,4.45
2022-11-24T15:38:38.736Z,4.80
2022-11-24T15:41:19.164Z,4.63
2022-11-24T15:43:46.738Z,4.50
2022-11-24T15:46:14.250Z,4.65
2022-11-24T15:48:41.370Z,3.83
2022-11-24T15:51:12.860Z,3.92
2022-11-24T15:53:44.325Z,4.17
2022-11-24T15:56:16.309Z,4.33
2022-11-24T15:58:43.542Z,4.13
2022-11-24T16:01:10.910Z,4.65
2022-11-24T16:03:47.010Z,4.85
2022-11-24T16:06:23.731Z,4.13
2022-11-24T16:08:51.688Z,3.15
2022-11-24T16:11:18.825Z,3.80
2022-11-24T16:13:51.821Z,3.60
2022-11-24T16:16:20.847Z,3.35
2022-11-24T16:18:48.321Z,4.30
2022-11-24T16:21:15.612Z,3.50
2022-11-24T16:23:42.810Z,3.00
2022-11-24T16:26:10.673Z,3.10
2022-11-24T16:28:38.048Z,2.30
2022-11-24T16:31:05.202Z,1.95
2022-11-24T16:33:32.356Z,2.42
2022-11-24T16:35:59.635Z,1.45
2022-11-24T16:38:26.802Z,1.50
2022-11-24T16:40:56.391Z,1.45
2022-11-24T16:43:24.668Z,0.80
2022-11-24T16:46:16.984Z,1.13
2022-11-24T16:48:45.671Z,0.68
2022-11-24T16:51:13.636Z,1.00
2022-11-24T16:53:41.517Z,1.10
2022-11-24T16:56:09.225Z,0.90
2022-11-24T16:58:41.006Z,1.17
2022-11-24T17:01:11.297Z,0.50
2022-11-24T17:03:39.010Z,1.15
2022-11-24T17:06:08.473Z,1.17
2022-11-24T17:08:37.102Z,0.77
2022-11-24T17:11:13.550Z,0.93
2022-11-24T17:13:41.577Z,0.80
2022-11-24T17:16:11.720Z,1.95
2022-11-24T17:18:39.969Z,1.30
2022-11-24T17:21:11.562Z,2.42
2022-11-24T17:23:38.918Z,0.85
2022-11-24T17:26:10.131Z,1.45
2022-11-24T17:28:37.779Z,1.10
2022-11-24T17:31:23.231Z,1.13
2022-11-24T17:33:52.304Z,1.15
2022-11-24T17:36:19.735Z,1.30
2022-11-24T17:38:46.882Z,1.30
2022-11-24T17:41:14.014Z,1.60
2022-11-24T17:43:41.275Z,1.35
2022-11-24T17:46:10.289Z,1.88
2022-11-24T17:48:37.530Z,2.22
2022-11-24T17:51:05.758Z,2.28
2022-11-24T17:53:32.829Z,2.10
2022-11-24T17:56:01.086Z,1.70
2022-11-24T17:58:30.194Z,2.70
2022-11-24T18:00:58.481Z,2.25
2022-11-24T18:03:28.700Z,2.83
2022-11-24T18:05:56.075Z,3.05
2022-11-24T18:08:24.079Z,2.25
2022-11-24T18:10:51.210Z,2.97
2022-11-24T18:13:48.444Z,2.22
2022-11-24T18:16:08.885Z,2.65
2022-11-24T18:18:40.111Z,2.83
2022-11-24T18:21:12.644Z,2.37
2022-11-24T18:26:07.481Z,2.88
2022-11-24T18:28:37.678Z,3.65
2022-11-24T18:31:07.714Z,3.55
2022-11-24T18:33:42.014Z,3.35
2022-11-24T18:36:15.134Z,4.57
2022-11-24T18:38:42.579Z,3.75
2022-11-24T18:41:11.909Z,3.50
2022-11-24T18:43:39.292Z,3.53
2022-11-24T18:46:08.443Z,2.97
2022-11-24T18:48:35.987Z,3.42
2022-11-24T18:51:03.463Z,3.97
2022-11-24T18:53:31.630Z,2.65
2022-11-24T18:56:07.135Z,3.15
2022-11-24T18:58:35.609Z,3.13
2022-11-24T19:01:14.611Z,4.45
2022-11-24T19:03:49.118Z,3.60
2022-11-24T19:06:28.761Z,3.95
2022-11-24T19:08:56.290Z,2.60
2022-11-24T19:11:26.121Z,3.13
2022-11-24T19:13:53.283Z,3.95
2022-11-24T19:16:21.531Z,3.85
2022-11-24T19:18:53.924Z,3.08
2022-11-24T19:21:21.881Z,3.50
2022-11-24T19:23:50.047Z,3.47
2022-11-24T19:26:18.236Z,3.33
2022-11-24T19:28:45.710Z,3.15
2022-11-24T19:31:14.302Z,3.67
2022-11-24T19:33:42.170Z,2.92
2022-11-24T19:36:12.218Z,4.15
2022-11-24T19:38:41.100Z,3.22
2022-11-24T19:41:13.811Z,4.05
2022-11-24T19:43:41.855Z,4.72
2022-11-24T19:46:11.847Z,4.10
2022-11-24T19:48:45.354Z,5.88
2022-11-24T19:51:15.221Z,5.35
2022-11-24T19:53:43.457Z,8.70
2022-11-24T19:56:22.450Z,6.63
2022-11-24T19:58:50.661Z,5.15
2022-11-24T20:01:29.927Z,4.32
2022-11-24T20:03:59.584Z,4.78
2022-11-24T20:06:38.210Z,4.68
2022-11-24T20:09:08.598Z,4.60
2022-11-24T20:11:36.432Z,3.20
2022-11-24T20:14:04.470Z,3.50
2022-11-24T20:16:33.658Z,5.65
2022-11-24T20:19:05.795Z,5.45
2022-11-24T20:21:34.653Z,3.95
2022-11-24T20:24:04.916Z,4.15
2022-11-24T20:26:38.121Z,4.00
2022-11-24T20:29:06.151Z,5.18
2022-11-24T20:31:36.106Z,3.80
2022-11-24T20:34:05.524Z,3.92
2022-11-24T20:36:34.998Z,4.55
2022-11-24T20:39:04.885Z,4.07
2022-11-24T20:41:37.260Z,7.45
2022-11-24T20:44:10.613Z,5.78
2022-11-24T20:46:39.659Z,7.30
2022-11-24T20:49:08.802Z,8.13
2022-11-24T20:51:47.119Z,8.40
2022-11-24T20:54:16.152Z,7.25
2022-11-24T20:56:44.648Z,7.13
2022-11-24T20:59:14.431Z,6.57
2022-11-24T21:01:45.373Z,6.30
2022-11-24T21:04:16.403Z,7.38
2022-11-24T21:06:43.769Z,5.55
2022-11-24T21:09:11.161Z,6.07
2022-11-24T21:11:39.189Z,4.47
2022-11-24T21:14:07.534Z,5.95
2022-11-24T21:16:36.939Z,4.95
2022-11-24T21:19:07.372Z,4.97
2022-11-24T21:21:36.031Z,4.20
2022-11-24T21:24:09.943Z,3.08
2022-11-24T21:26:38.671Z,4.72
2022-11-24T21:29:06.868Z,4.43
2022-11-24T21:31:38.470Z,5.20
2022-11-24T21:34:07.041Z,4.18
2022-11-24T21:36:35.975Z,5.03
2022-11-24T21:39:03.990Z,4.70
2022-11-24T21:41:33.421Z,4.47
2022-11-24T21:44:00.888Z,4.72
2022-11-24T21:46:30.074Z,4.18
2022-11-24T21:48:57.264Z,5.18
2022-11-24T21:51:24.387Z,4.32
2022-11-24T21:53:51.597Z,5.28
2022-11-24T21:56:20.735Z,4.38
2022-11-24T21:58:50.683Z,5.20
2022-11-24T22:01:19.702Z,3.50
2022-11-24T22:03:47.439Z,3.53
2022-11-24T22:06:16.681Z,4.57
2022-11-24T22:08:43.887Z,3.38
2022-11-24T22:11:19.845Z,3.53
2022-11-24T22:13:47.309Z,3.95
2022-11-24T22:16:17.287Z,2.28
2022-11-24T22:18:45.187Z,3.35
2022-11-24T22:21:19.031Z,3.78
2022-11-24T22:23:46.477Z,4.03
2022-11-24T22:26:18.530Z,4.18
2022-11-24T22:28:46.511Z,3.35
2022-11-24T22:31:15.995Z,3.63
2022-11-24T22:33:46.312Z,3.72
2022-11-24T22:36:14.785Z,4.38
2022-11-24T22:38:42.850Z,3.78
2022-11-24T22:41:15.685Z,3.67
2022-11-24T22:43:43.814Z,3.10
2022-11-24T22:46:19.842Z,3.53
2022-11-24T22:48:48.342Z,3.67
2022-11-24T22:51:24.929Z,3.00
2022-11-24T22:53:56.674Z,2.78
2022-11-24T22:56:24.935Z,3.70
2022-11-24T22:58:52.224Z,3.20
2022-11-24T23:01:21.642Z,3.53
2022-11-24T23:03:49.558Z,3.05
2022-11-24T23:06:20.548Z,3.28
2022-11-24T23:08:48.046Z,4.32
2022-11-24T23:11:18.892Z,3.17
2022-11-24T23:13:46.494Z,3.33
2022-11-24T23:16:16.251Z,4.00
2022-11-24T23:18:44.694Z,2.70
2022-11-24T23:21:16.062Z,3.92
2022-11-24T23:23:44.061Z,3.20
2022-11-24T23:26:16.569Z,2.95
2022-11-24T23:28:43.965Z,3.75
2022-11-24T23:31:13.243Z,2.95
2022-11-24T23:33:41.004Z,3.08
2022-11-24T23:36:13.420Z,2.85
2022-11-24T23:38:41.067Z,4.22
2022-11-24T23:41:11.673Z,4.68
2022-11-24T23:43:41.696Z,3.40
2022-11-24T23:46:20.566Z,3.15
2022-11-24T23:48:48.958Z,3.38
2022-11-24T23:51:21.173Z,3.80
2022-11-24T23:56:19.533Z,3.92
2022-11-24T23:58:47.406Z,3.95
